KCON

Concord Municipal Airport

Concord, New Hampshire, USA
METAR KCON 212151Z AUTO 34010G16KT 10SM CLR 26/07 A2979 RMK AO2 SLP089 T02610067
Observed Flight Rules
Jun-21 @ 21:51 UTC (13 minutes ago) Visual Flight Rules
Wind Visibility Clouds
340° at 10 knots
 Gusting to 16 knots
10 miles
  • Clear skies
Temperatures Readings
Current 26°C / 79°F
Dewpoint 7°C / 45°F
Humidity 30%
Altimeter 29.79" Hg
Pressure 1008.9 hPa
Elevation 103
METAR KCON 212151Z AUTO 34010G16KT 10SM CLR 26/07 A2979 RMK AO2 SLP089 T02610067
Observed Flight Rules
Jun-21 @ 21:51 UTC
(13 minutes ago)
VFR
Wind Visibility
340° at 10 knots
 Gusting to 16 knots
10 miles
Clouds
  • Clear skies
Temperature Dewpoint
26°C / 79°F 7°C / 45°F
Humidity Altimeter Pressure
30% 29.79" Hg 1008.9 hPa